Bookmark and Share
Track history (hours):
 

Marianne Danica

Last reported at 2014-Apr-14 21:32 UTC. Time now 2014-Apr-23 09:45 UTC.
Position N 32°00' W 016°48'.
Warning: this ship's position is 8 days out of date.

Length 71 m; draft 3.7 m.

Type: Ship (hazmat cat A). MMSI: 219544000.

NotesDate/timePositionNaut miles runAvg speedWind from/ knotsBaromVisibWave heightAir tempDewpointWater temp
2014-Apr-14 21:32N 32°00' W 016°48'1010.1
2014-Apr-14 20:34N 32°04' W 016°38'1010.2
2014-Apr-14 19:32N 32°08' W 016°27'  
2014-Apr-12 14:06N 35°57' W 005°45'4 7.9
2014-Apr-12 13:33N 35°57' W 005°40'9 8.9
2014-Apr-12 12:33N 35°59' W 005°29'8 7.7
2014-Apr-12 11:33N 36°01' W 005°20'8 8.5
2014-Apr-12 10:33N 36°03' W 005°09'22410.2
2014-Apr-11 12:33N 37°18' W 000°47'2211.1
2014-Apr-11 10:33N 37°32' W 000°25'1111.1
2014-Apr-11 09:33N 37°41' W 000°16'1111.3
2014-Apr-11 08:32N 37°50' W 000°08'1111.7
2014-Apr-11 07:33N 37°59' E 000°01'9311.2
2014-Apr-10 23:16N 39°15' E 001°09'1011.2
2014-Apr-10 22:23N 39°23' E 001°16'1011.2
2014-Apr-10 21:28N 39°31' E 001°25'2111.1
2014-Apr-10 19:33N 39°45' E 001°45'1010.4
2014-Apr-10 18:33N 39°53' E 001°55'1010.4
2014-Apr-10 17:33N 40°00' E 002°04'1010.1
2014-Apr-10 16:33N 40°07' E 002°14'1010.3
2014-Apr-10 15:33N 40°14' E 002°23'1010.4
2014-Apr-10 14:33N 40°22' E 002°33'1110.6
2014-Apr-10 13:33N 40°29' E 002°43'1110.7
2014-Apr-10 12:33N 40°37' E 002°53'1110.7
2014-Apr-10 11:33N 40°44' E 003°03'1110.8
2014-Apr-10 10:32N 40°52' E 003°13'1111.2
2014-Apr-10 09:33N 40°60' E 003°24'1310.0
2014-Apr-10 08:18N 41°08' E 003°36'1011.0
2014-Apr-10 07:25N 41°15' E 003°45'910.3
2014-Apr-10 06:32N 41°21' E 003°54'1110.8
2014-Apr-10 05:33N 41°29' E 004°04'1110.7
2014-Apr-10 04:33N 41°36' E 004°14'3311.0
2014-Apr-10 01:32N 41°60' E 004°46'1111.1
2014-Apr-10 00:33N 42°07' E 004°56'1111.1
2014-Apr-09 23:31N 42°15' E 005°07'2110.9
2014-Apr-09 21:33N 42°30' E 005°28'1110.7
2014-Apr-09 20:31N 42°38' E 005°39'21 0.9
2014-Apr-08 21:28N 42°41' E 006°07'24 4.1
2014-Apr-08 15:28N 42°17' E 006°17'27 9.3
2014-Apr-08 12:32N 41°53' E 006°33'15710.5
2014-Apr-07 21:32N 39°27' E 007°49'1210.3
2014-Apr-07 20:23N 39°16' E 007°55'1010.1
2014-Apr-07 19:21N 39°06' E 007°60'1910.1
2014-Apr-07 17:28N 38°49' E 008°12'1011.0
2014-Apr-07 16:33N 38°44' E 008°23'1111.0
2014-Apr-07 15:33N 38°39' E 008°35'1111.1
2014-Apr-07 14:33N 38°33' E 008°48'1110.5
2014-Apr-07 13:33N 38°28' E 008°59'10 9.9
2014-Apr-07 12:33N 38°23' E 009°10'10 9.6
2014-Apr-07 11:33N 38°18' E 009°20'9 9.4
2014-Apr-07 10:33N 38°13' E 009°31'9 9.1
2014-Apr-07 09:33N 38°08' E 009°41'9 8.8
2014-Apr-07 08:33N 38°03' E 009°50'9 8.6
2014-Apr-07 07:32N 37°59' E 009°60'141 9.2
2014-Apr-06 16:20N 37°02' E 012°42'41 7.9
2014-Apr-06 11:06N 36°47' E 013°30'4 7.8
2014-Apr-06 10:33N 36°46' E 013°35'8 7.8
2014-Apr-06 09:33N 36°43' E 013°44'8 8.0
2014-Apr-06 08:33N 36°40' E 013°53'8 8.1
2014-Apr-06 07:33N 36°37' E 014°03'8 8.2
2014-Apr-06 06:33N 36°34' E 014°12'9 8.0
2014-Apr-06 05:23N 36°30' E 014°23'6 7.6
2014-Apr-06 04:32N 36°28' E 014°30'  

Dump ship's entire track history

sailing weather and tide predictions

Marianne Danica — OWWO2 — position and weather